Stanfield, Oregon
Current Conditions -  °F | °C
As of 11:53 PM on Monday 20 Oct 2014 (Local Time) from KHRI Reporting Station
Scattered Clouds Scattered Clouds  
Wind Chill: 53°   Ceiling: Unl
Heat Index: 53°   Visibility: 10mi
Dew Point: 50°   Wind: 6mph
Humidity: 89%   Direction: 180°S
Pressure: 29.86"   Gusts: NA
Location:  45.78°N, 119.22°W
Report Text: KHRI 210653Z AUTO 18005KT 10SM SCT080 12/10 A2986 RMK AO2 SLP108 T01170100
Loading
Personal Weather Stations






























Interactive Weather Map
Tropical Storm Tracking
New forecast layout! Learn more

10-Day Weather Forecast

Advertisements
Track Severe Weather on mobile